createdAt,value
2022-10-21T00:00:51.458Z,92.57
2022-10-21T00:03:19.614Z,94.85
2022-10-21T00:05:47.615Z,93.55
2022-10-21T00:08:15.786Z,87.13
2022-10-21T00:10:43.155Z,88.53
2022-10-21T00:13:10.554Z,88.72
2022-10-21T00:15:37.725Z,92.80
2022-10-21T00:18:04.894Z,90.30
2022-10-21T00:20:33.731Z,90.97
2022-10-21T00:23:03.231Z,87.90
2022-10-21T00:25:30.356Z,87.68
2022-10-21T00:27:57.753Z,94.45
2022-10-21T00:30:24.858Z,86.63
2022-10-21T00:32:51.942Z,86.55
2022-10-21T00:35:19.022Z,92.40
2022-10-21T00:37:46.145Z,99.20
2022-10-21T00:40:14.430Z,104.47
2022-10-21T00:42:45.521Z,98.95
2022-10-21T00:45:24.311Z,104.50
2022-10-21T00:47:57.342Z,100.90
2022-10-21T00:50:38.736Z,101.88
2022-10-21T00:53:13.457Z,99.30
2022-10-21T00:55:46.543Z,113.45
2022-10-21T00:58:14.014Z,113.05
2022-10-21T01:00:41.199Z,93.97
2022-10-21T01:03:08.569Z,93.38
2022-10-21T01:05:39.068Z,76.70
2022-10-21T01:08:06.291Z,78.60
2022-10-21T01:10:33.871Z,81.93
2022-10-21T01:13:00.902Z,85.40
2022-10-21T01:15:45.641Z,92.32
2022-10-21T01:18:27.294Z,89.20
2022-10-21T01:21:08.330Z,83.80
2022-10-21T01:24:00.316Z,94.75
2022-10-21T01:26:36.211Z,99.35
2022-10-21T01:29:43.843Z,106.15
2022-10-21T01:32:32.435Z,95.72
2022-10-21T01:35:12.587Z,94.75
2022-10-21T01:38:01.223Z,101.72
2022-10-21T01:40:37.618Z,86.22
2022-10-21T01:43:16.952Z,89.20
2022-10-21T01:45:57.711Z,104.20
2022-10-21T01:48:30.787Z,100.55
2022-10-21T01:51:07.298Z,104.50
2022-10-21T01:53:43.604Z,99.20
2022-10-21T01:56:12.962Z,97.78
2022-10-21T01:58:44.237Z,102.72
2022-10-21T02:01:13.857Z,91.65
2022-10-21T02:03:45.754Z,100.57
2022-10-21T02:06:14.135Z,102.15
2022-10-21T02:08:42.789Z,96.93
2022-10-21T02:11:11.909Z,107.03
2022-10-21T02:13:48.450Z,97.25
2022-10-21T02:16:19.228Z,95.25
2022-10-21T02:18:46.325Z,106.50
2022-10-21T02:21:19.052Z,103.75
2022-10-21T02:24:02.851Z,107.83
2022-10-21T02:26:30.024Z,94.85
2022-10-21T02:28:58.907Z,103.70
2022-10-21T02:31:39.642Z,116.95
2022-10-21T02:34:15.807Z,117.13
2022-10-21T02:36:50.258Z,107.00
2022-10-21T02:39:25.344Z,113.32
2022-10-21T02:41:55.330Z,107.80
2022-10-21T02:44:22.762Z,102.28
2022-10-21T02:46:50.495Z,107.50
2022-10-21T02:49:17.654Z,105.78
2022-10-21T02:51:45.535Z,107.35
2022-10-21T02:54:13.837Z,102.38
2022-10-21T02:56:40.949Z,106.03
2022-10-21T02:59:08.423Z,99.70
2022-10-21T03:01:35.592Z,106.40
2022-10-21T03:04:02.758Z,110.28
2022-10-21T03:06:29.862Z,107.53
2022-10-21T03:08:57.101Z,134.98
2022-10-21T03:11:24.248Z,149.18
2022-10-21T03:13:51.346Z,160.93
2022-10-21T03:18:50.513Z,141.55
2022-10-21T03:21:17.616Z,137.00
2022-10-21T03:23:44.719Z,130.95
2022-10-21T03:26:11.879Z,152.77
2022-10-21T03:28:39.519Z,147.43
2022-10-21T03:31:06.648Z,136.75
2022-10-21T03:33:33.745Z,155.25
2022-10-21T03:36:00.867Z,150.95
2022-10-21T03:38:28.009Z,159.80
2022-10-21T03:40:55.218Z,147.77
2022-10-21T03:43:22.362Z,163.05
2022-10-21T03:45:49.503Z,165.50
2022-10-21T03:48:17.527Z,189.93
2022-10-21T03:50:44.641Z,192.68
2022-10-21T03:53:24.359Z,197.07
2022-10-21T03:55:58.858Z,225.18
2022-10-21T03:58:25.967Z,227.18
2022-10-21T04:00:53.532Z,229.13
2022-10-21T04:03:20.825Z,356.48
2022-10-21T04:05:47.970Z,242.93
2022-10-21T04:08:15.098Z,223.73
2022-10-21T04:10:42.226Z,284.52
2022-10-21T04:13:09.350Z,224.68
2022-10-21T04:15:36.577Z,322.92
2022-10-21T04:18:03.778Z,343.98
2022-10-21T04:20:30.894Z,284.75
2022-10-21T04:22:58.003Z,220.90
2022-10-21T04:25:25.159Z,193.30
2022-10-21T04:27:52.331Z,202.65
2022-10-21T04:30:19.423Z,179.73
2022-10-21T04:32:47.128Z,192.93
2022-10-21T04:35:14.208Z,196.45
2022-10-21T04:37:41.315Z,183.45
2022-10-21T04:40:09.191Z,160.32
2022-10-21T04:42:36.453Z,128.25
2022-10-21T04:45:03.909Z,136.60
2022-10-21T04:47:31.327Z,135.70
2022-10-21T04:49:58.439Z,132.13
2022-10-21T04:52:25.532Z,126.43
2022-10-21T04:54:52.695Z,116.80
2022-10-21T04:57:20.453Z,140.40
2022-10-21T04:59:47.625Z,148.98
2022-10-21T05:02:14.803Z,127.03
2022-10-21T05:04:41.898Z,153.55
2022-10-21T05:07:09.127Z,297.65
2022-10-21T05:09:36.238Z,220.85
2022-10-21T05:12:03.857Z,214.88
2022-10-21T05:14:31.000Z,228.38
2022-10-21T05:16:58.169Z,271.45
2022-10-21T05:19:28.986Z,353.42
2022-10-21T05:21:58.790Z,212.05
2022-10-21T05:24:26.173Z,285.98
2022-10-21T05:26:53.292Z,290.77
2022-10-21T05:29:20.383Z,283.35
2022-10-21T05:31:47.583Z,179.68
2022-10-21T05:34:14.675Z,173.50
2022-10-21T05:36:42.362Z,185.40
2022-10-21T05:39:11.446Z,157.05
2022-10-21T05:41:40.231Z,145.85
2022-10-21T05:44:09.171Z,123.60
2022-10-21T05:46:36.299Z,136.55
2022-10-21T05:49:03.724Z,118.28
2022-10-21T05:51:30.836Z,120.90
2022-10-21T05:53:58.214Z,126.50
2022-10-21T05:56:25.350Z,111.07
2022-10-21T05:58:52.520Z,115.78
2022-10-21T06:01:19.692Z,114.25
2022-10-21T06:03:47.071Z,112.10
2022-10-21T06:06:14.166Z,114.25
2022-10-21T06:08:41.325Z,105.90
2022-10-21T06:11:14.168Z,117.47
2022-10-21T06:13:41.571Z,123.72
2022-10-21T06:16:10.125Z,109.68
2022-10-21T06:18:37.713Z,134.25
2022-10-21T06:21:05.638Z,149.18
2022-10-21T06:23:33.557Z,154.30
2022-10-21T06:26:10.395Z,147.35
2022-10-21T06:28:39.111Z,148.40
2022-10-21T06:31:07.862Z,166.05
2022-10-21T06:33:35.589Z,137.82
2022-10-21T06:36:02.790Z,131.25
2022-10-21T06:38:32.143Z,130.38
2022-10-21T06:41:07.891Z,119.63
2022-10-21T06:43:38.111Z,110.40
2022-10-21T06:46:08.964Z,120.47
2022-10-21T06:48:36.263Z,112.38
2022-10-21T06:51:07.395Z,124.88
2022-10-21T06:53:38.951Z,110.40
2022-10-21T06:56:10.036Z,107.20
2022-10-21T06:58:39.768Z,98.95
2022-10-21T07:01:16.661Z,100.40
2022-10-21T07:03:55.334Z,101.63
2022-10-21T07:06:22.727Z,94.10
2022-10-21T07:08:57.933Z,99.70
2022-10-21T07:11:27.580Z,90.82
2022-10-21T07:13:54.877Z,99.30
2022-10-21T07:16:31.344Z,92.50
2022-10-21T07:18:58.587Z,110.20
2022-10-21T07:21:27.557Z,92.45
2022-10-21T07:23:57.914Z,106.65
2022-10-21T07:26:29.033Z,95.35
2022-10-21T07:28:58.263Z,94.38
2022-10-21T07:31:26.721Z,92.82
2022-10-21T07:33:54.221Z,80.63
2022-10-21T07:36:24.401Z,99.47
2022-10-21T07:38:53.857Z,110.22
2022-10-21T07:41:45.787Z,96.88
2022-10-21T07:44:14.071Z,91.25
2022-10-21T07:46:43.058Z,104.20
2022-10-21T07:49:11.695Z,94.28
2022-10-21T07:51:40.002Z,86.60
2022-10-21T07:54:07.814Z,92.68
2022-10-21T07:56:38.478Z,93.35
2022-10-21T07:59:10.192Z,87.65
2022-10-21T08:01:44.321Z,84.95
2022-10-21T08:04:15.399Z,85.38
2022-10-21T08:06:44.039Z,77.45
2022-10-21T08:09:11.732Z,74.60
2022-10-21T08:11:38.998Z,81.65
2022-10-21T08:14:08.672Z,85.18
2022-10-21T08:16:36.467Z,72.38
2022-10-21T08:19:04.649Z,69.95
2022-10-21T08:21:31.821Z,76.63
2022-10-21T08:24:02.261Z,71.78
2022-10-21T08:26:29.657Z,71.55
2022-10-21T08:31:28.764Z,84.30
2022-10-21T08:33:55.942Z,116.53
2022-10-21T08:36:25.885Z,76.15
2022-10-21T08:38:54.043Z,73.65
2022-10-21T08:41:31.204Z,78.72
2022-10-21T08:44:16.659Z,77.95
2022-10-21T08:47:24.905Z,73.55
2022-10-21T08:50:00.520Z,70.05
2022-10-21T08:52:49.606Z,69.18
2022-10-21T08:55:34.227Z,71.88
2022-10-21T08:58:02.289Z,69.32
2022-10-21T09:01:05.711Z,79.43
2022-10-21T09:03:54.325Z,71.50
2022-10-21T09:06:44.543Z,69.25
2022-10-21T09:09:24.252Z,75.07
2022-10-21T09:12:06.030Z,79.47
2022-10-21T09:14:50.201Z,73.55
2022-10-21T09:17:46.941Z,69.72
2022-10-21T09:20:45.012Z,79.85
2022-10-21T09:23:14.766Z,77.05
2022-10-21T09:26:01.946Z,80.45
2022-10-21T09:28:30.515Z,85.03
2022-10-21T09:31:00.857Z,85.97
2022-10-21T09:33:31.893Z,104.03
2022-10-21T09:36:04.650Z,97.88
2022-10-21T09:38:57.907Z,105.68
2022-10-21T09:41:33.039Z,111.25
2022-10-21T09:44:00.136Z,114.97
2022-10-21T09:46:27.437Z,112.93
2022-10-21T09:51:45.359Z,117.25
2022-10-21T09:54:19.870Z,121.22
2022-10-21T09:56:57.049Z,116.57
2022-10-21T09:59:29.107Z,114.60
2022-10-21T10:02:07.675Z,136.32
2022-10-21T10:04:35.962Z,127.13
2022-10-21T10:07:28.085Z,132.65
2022-10-21T10:09:55.219Z,129.43
2022-10-21T10:12:25.346Z,143.38
2022-10-21T10:14:52.805Z,131.80
2022-10-21T10:17:31.903Z,125.97
2022-10-21T10:20:04.895Z,120.90
2022-10-21T10:22:32.948Z,119.80
2022-10-21T10:25:12.030Z,128.07
2022-10-21T10:27:48.206Z,118.72
2022-10-21T10:30:16.892Z,111.93
2022-10-21T10:32:46.350Z,124.63
2022-10-21T10:35:33.973Z,112.18
2022-10-21T10:38:02.738Z,103.93
2022-10-21T10:40:39.570Z,90.13
2022-10-21T10:43:32.004Z,83.63
2022-10-21T10:46:02.035Z,89.25
2022-10-21T10:48:35.076Z,84.85
2022-10-21T10:51:07.076Z,90.45
2022-10-21T10:53:35.700Z,85.97
2022-10-21T10:56:24.491Z,80.25
2022-10-21T10:59:17.062Z,86.90
2022-10-21T11:02:02.535Z,83.28
2022-10-21T11:04:56.622Z,83.93
2022-10-21T11:07:45.159Z,91.25
2022-10-21T11:10:35.975Z,90.72
2022-10-21T11:13:11.150Z,87.90
2022-10-21T11:15:44.687Z,76.43
2022-10-21T11:18:27.586Z,74.72
2022-10-21T11:20:59.779Z,87.40
2022-10-21T11:23:29.623Z,80.78
2022-10-21T11:26:21.431Z,92.82
2022-10-21T11:29:01.378Z,103.88
2022-10-21T11:32:13.548Z,92.68
2022-10-21T11:35:05.192Z,100.10
2022-10-21T11:37:53.642Z,94.50
2022-10-21T11:40:37.494Z,101.57
2022-10-21T11:43:16.582Z,94.22
2022-10-21T11:45:58.297Z,99.65
2022-10-21T11:48:31.151Z,96.63
2022-10-21T11:51:16.468Z,92.88
2022-10-21T11:54:01.946Z,99.53
2022-10-21T11:56:50.570Z,102.45
2022-10-21T11:59:36.186Z,98.55
2022-10-21T12:02:33.331Z,104.85
2022-10-21T12:05:18.703Z,104.90
2022-10-21T12:07:51.842Z,97.07
2022-10-21T12:10:34.131Z,103.25
2022-10-21T12:13:13.528Z,105.72
2022-10-21T12:15:50.152Z,97.30
2022-10-21T12:18:20.558Z,97.97
2022-10-21T12:20:50.159Z,96.53
2022-10-21T12:23:22.054Z,96.55
2022-10-21T12:25:49.090Z,98.88
2022-10-21T12:28:35.685Z,101.65
2022-10-21T12:31:28.865Z,104.70
2022-10-21T12:33:56.948Z,103.25
2022-10-21T12:36:24.093Z,103.13
2022-10-21T12:38:56.463Z,114.68
2022-10-21T12:41:23.488Z,107.95
2022-10-21T12:44:02.972Z,104.70
2022-10-21T12:46:40.323Z,103.22
2022-10-21T12:49:10.573Z,110.00
2022-10-21T12:51:39.188Z,111.88
2022-10-21T12:54:13.423Z,106.03
2022-10-21T12:56:47.702Z,97.68
2022-10-21T12:59:28.438Z,105.45
2022-10-21T13:02:04.625Z,107.15
2022-10-21T13:04:31.709Z,108.25
2022-10-21T13:07:19.349Z,103.32
2022-10-21T13:09:50.745Z,108.22
2022-10-21T13:12:29.252Z,102.47
2022-10-21T13:15:22.186Z,102.18
2022-10-21T13:17:55.094Z,99.38
2022-10-21T13:20:22.187Z,103.22
2022-10-21T13:23:03.436Z,98.88
2022-10-21T13:28:14.003Z,97.65
2022-10-21T13:30:58.526Z,97.63
2022-10-21T13:33:29.709Z,101.57
2022-10-21T13:36:24.970Z,92.28
2022-10-21T13:38:55.382Z,101.35
2022-10-21T13:41:27.118Z,101.97
2022-10-21T13:44:06.331Z,106.07
2022-10-21T13:46:43.603Z,104.00
2022-10-21T13:49:32.934Z,101.60
2022-10-21T13:52:00.042Z,95.57
2022-10-21T13:54:34.863Z,96.40
2022-10-21T13:57:08.351Z,105.35
2022-10-21T14:02:03.816Z,99.60
2022-10-21T14:04:33.490Z,96.85
2022-10-21T14:07:04.686Z,106.07
2022-10-21T14:09:45.265Z,102.50
2022-10-21T14:12:21.854Z,103.57
2022-10-21T14:14:51.690Z,98.10
2022-10-21T14:17:22.490Z,94.93
2022-10-21T14:20:05.481Z,96.75
2022-10-21T14:22:33.229Z,101.05
2022-10-21T14:25:04.484Z,91.60
2022-10-21T14:27:34.153Z,105.78
2022-10-21T14:30:04.253Z,121.70
2022-10-21T14:32:32.078Z,113.80
2022-10-21T14:35:11.283Z,121.20
2022-10-21T14:37:48.548Z,128.60
2022-10-21T14:40:26.189Z,134.57
2022-10-21T14:42:55.083Z,124.97
2022-10-21T14:45:34.762Z,134.90
2022-10-21T14:48:11.694Z,126.50
2022-10-21T14:50:41.407Z,131.57
2022-10-21T14:53:19.182Z,131.25
2022-10-21T14:55:48.574Z,129.68
2022-10-21T14:58:22.876Z,125.97
2022-10-21T15:01:07.121Z,136.68
2022-10-21T15:03:38.580Z,127.07
2022-10-21T15:06:17.855Z,131.20
2022-10-21T15:09:10.748Z,126.10
2022-10-21T15:11:42.356Z,123.60
2022-10-21T15:14:12.246Z,130.02
2022-10-21T15:16:53.579Z,132.95
2022-10-21T15:19:25.223Z,124.35
2022-10-21T15:22:01.557Z,126.80
2022-10-21T15:24:34.067Z,132.57
2022-10-21T15:27:02.290Z,129.20
2022-10-21T15:29:36.070Z,121.75
2022-10-21T15:32:05.845Z,136.77
2022-10-21T15:34:33.028Z,129.40
2022-10-21T15:37:00.512Z,134.43
2022-10-21T15:39:28.748Z,138.90
2022-10-21T15:41:57.506Z,137.75
2022-10-21T15:44:28.023Z,136.77
2022-10-21T15:47:00.262Z,141.45
2022-10-21T15:49:32.375Z,136.45
2022-10-21T15:52:00.210Z,139.82
2022-10-21T15:54:27.302Z,149.98
2022-10-21T15:56:55.278Z,145.15
2022-10-21T15:59:24.484Z,160.40
2022-10-21T16:01:52.500Z,148.45
2022-10-21T16:04:20.587Z,148.18
2022-10-21T16:06:49.555Z,153.20
2022-10-21T16:09:25.919Z,150.40
2022-10-21T16:11:59.223Z,155.32
2022-10-21T16:14:29.395Z,157.13
2022-10-21T16:17:00.648Z,157.07
2022-10-21T16:19:28.847Z,162.93
2022-10-21T16:21:56.649Z,150.00
2022-10-21T16:24:23.770Z,165.23
2022-10-21T16:26:51.076Z,161.32
2022-10-21T16:29:24.248Z,148.88
2022-10-21T16:31:52.045Z,159.32
2022-10-21T16:34:19.590Z,168.23
2022-10-21T16:36:46.769Z,179.98
2022-10-21T16:39:16.805Z,158.55
2022-10-21T16:41:43.935Z,163.00
2022-10-21T16:44:11.185Z,161.93
2022-10-21T16:46:56.494Z,157.23
2022-10-21T16:49:27.891Z,160.25
2022-10-21T16:51:57.381Z,160.20
2022-10-21T16:54:24.546Z,154.77
2022-10-21T16:56:54.878Z,169.55
2022-10-21T16:59:23.579Z,157.40
2022-10-21T17:01:51.527Z,165.07
2022-10-21T17:04:18.776Z,158.90
2022-10-21T17:06:45.887Z,159.80
2022-10-21T17:09:13.185Z,170.45
2022-10-21T17:11:42.246Z,151.45
2022-10-21T17:14:16.229Z,154.88
2022-10-21T17:16:45.299Z,154.13
2022-10-21T17:19:14.520Z,153.68
2022-10-21T17:21:41.763Z,163.68
2022-10-21T17:24:13.796Z,140.35
2022-10-21T17:26:41.404Z,159.60
2022-10-21T17:29:10.762Z,158.20
2022-10-21T17:31:40.834Z,156.73
2022-10-21T17:34:24.450Z,164.10
2022-10-21T17:36:51.704Z,148.60
2022-10-21T17:39:18.811Z,155.38
2022-10-21T17:44:18.413Z,146.52
2022-10-21T17:46:47.571Z,151.02
2022-10-21T17:49:15.148Z,155.52
2022-10-21T17:51:42.282Z,148.98
2022-10-21T17:54:10.141Z,142.45
2022-10-21T17:56:37.278Z,150.15
2022-10-21T17:59:04.503Z,148.35
2022-10-21T18:01:31.780Z,161.77
2022-10-21T18:04:02.022Z,172.57
2022-10-21T18:06:29.278Z,168.07
2022-10-21T18:08:58.127Z,141.77
2022-10-21T18:11:25.760Z,152.30
2022-10-21T18:13:55.238Z,157.00
2022-10-21T18:16:24.322Z,154.38
2022-10-21T18:18:55.227Z,144.88
2022-10-21T18:21:24.648Z,140.20
2022-10-21T18:23:53.453Z,130.65
2022-10-21T18:26:31.301Z,143.60
2022-10-21T18:29:03.018Z,138.65
2022-10-21T18:31:34.408Z,139.40
2022-10-21T18:34:03.939Z,131.02
2022-10-21T18:36:32.076Z,128.95
2022-10-21T18:39:01.150Z,124.00
2022-10-21T18:41:28.463Z,127.30
2022-10-21T18:44:01.207Z,112.80
2022-10-21T18:46:29.799Z,106.10
2022-10-21T18:48:57.795Z,103.18
2022-10-21T18:51:25.301Z,108.65
2022-10-21T18:53:53.378Z,104.45
2022-10-21T18:56:22.234Z,105.15
2022-10-21T18:58:50.078Z,111.95
2022-10-21T19:01:18.553Z,127.22
2022-10-21T19:03:45.954Z,118.47
2022-10-21T19:06:32.142Z,125.80
2022-10-21T19:09:01.156Z,108.95
2022-10-21T19:11:28.974Z,108.63
2022-10-21T19:13:56.331Z,106.40
2022-10-21T19:16:23.583Z,92.53
2022-10-21T19:18:51.274Z,93.53
2022-10-21T19:21:19.782Z,81.32
2022-10-21T19:23:47.029Z,102.57
2022-10-21T19:26:14.934Z,76.63
2022-10-21T19:28:42.193Z,89.20
2022-10-21T19:31:11.483Z,69.30
2022-10-21T19:33:39.214Z,64.63
2022-10-21T19:36:08.103Z,66.38
2022-10-21T19:38:50.804Z,63.97
2022-10-21T19:41:22.483Z,69.30
2022-10-21T19:43:53.126Z,80.40
2022-10-21T19:46:24.912Z,67.40
2022-10-21T19:48:53.654Z,71.28
2022-10-21T19:51:23.134Z,60.38
2022-10-21T19:53:51.245Z,61.00
2022-10-21T19:56:22.199Z,57.05
2022-10-21T19:58:54.698Z,55.97
2022-10-21T20:01:24.964Z,57.95
2022-10-21T20:03:53.398Z,64.10
2022-10-21T20:06:25.226Z,68.90
2022-10-21T20:08:58.107Z,64.93
2022-10-21T20:11:25.750Z,61.20
2022-10-21T20:13:52.927Z,53.78
2022-10-21T20:16:21.825Z,43.75
2022-10-21T20:18:49.584Z,46.75
2022-10-21T20:21:16.867Z,51.60
2022-10-21T20:23:44.053Z,47.10
2022-10-21T20:26:11.470Z,49.85
2022-10-21T20:28:38.867Z,49.22
2022-10-21T20:31:09.150Z,51.97
2022-10-21T20:33:40.344Z,45.40
2022-10-21T20:36:17.867Z,45.22
2022-10-21T20:38:46.099Z,42.65
2022-10-21T20:41:23.568Z,36.75
2022-10-21T20:43:51.864Z,41.03
2022-10-21T20:46:21.814Z,45.35
2022-10-21T20:48:50.488Z,25.52
2022-10-21T20:51:27.026Z,33.92
2022-10-21T20:53:57.313Z,29.80
2022-10-21T20:56:33.876Z,24.20
2022-10-21T20:59:01.638Z,19.27
2022-10-21T21:01:34.808Z,21.30
2022-10-21T21:04:08.361Z,20.23
2022-10-21T21:11:51.934Z,26.98
2022-10-21T21:14:19.127Z,23.85
2022-10-21T21:16:46.277Z,30.27
2022-10-21T21:19:14.349Z,23.40
2022-10-21T21:21:41.662Z,20.48
2022-10-21T21:24:08.865Z,18.02
2022-10-21T21:26:38.458Z,13.88
2022-10-21T21:29:07.529Z,13.90
2022-10-21T21:31:37.090Z,14.77
2022-10-21T21:34:05.378Z,12.93
2022-10-21T21:36:32.800Z,12.48
2022-10-21T21:39:00.095Z,12.60
2022-10-21T21:41:27.298Z,12.82
2022-10-21T21:43:56.555Z,10.32
2022-10-21T21:46:24.971Z,10.98
2022-10-21T21:48:59.571Z,11.25
2022-10-21T21:51:29.362Z,10.65
2022-10-21T21:53:57.218Z,11.70
2022-10-21T21:56:25.362Z,8.68
2022-10-21T21:58:54.971Z,8.25
2022-10-21T22:01:25.398Z,8.90
2022-10-21T22:03:53.207Z,8.95
2022-10-21T22:06:22.768Z,7.32
2022-10-21T22:08:51.016Z,10.20
2022-10-21T22:11:22.455Z,12.02
2022-10-21T22:13:49.936Z,10.90
2022-10-21T22:16:18.678Z,10.40
2022-10-21T22:18:45.838Z,9.88
2022-10-21T22:21:16.560Z,8.00
2022-10-21T22:23:45.196Z,7.95
2022-10-21T22:26:13.611Z,8.15
2022-10-21T22:28:41.450Z,10.23
2022-10-21T22:31:12.040Z,9.88
2022-10-21T22:33:40.213Z,9.93
2022-10-21T22:36:08.082Z,7.75
2022-10-21T22:38:35.194Z,6.70
2022-10-21T22:41:06.123Z,6.75
2022-10-21T22:43:35.654Z,11.18
2022-10-21T22:46:09.706Z,8.70
2022-10-21T22:48:49.023Z,8.15
2022-10-21T22:51:16.142Z,9.57
2022-10-21T22:53:43.271Z,10.55
2022-10-21T22:56:10.436Z,10.45
2022-10-21T22:58:37.622Z,7.05
2022-10-21T23:01:09.678Z,8.73
2022-10-21T23:03:37.031Z,10.35
2022-10-21T23:06:04.459Z,9.07
2022-10-21T23:08:31.795Z,7.10
2022-10-21T23:10:58.979Z,7.97
2022-10-21T23:13:26.214Z,8.20
2022-10-21T23:15:53.322Z,6.82
2022-10-21T23:18:20.522Z,9.80
2022-10-21T23:20:47.697Z,9.98
2022-10-21T23:23:14.830Z,9.80
2022-10-21T23:25:41.937Z,12.70
2022-10-21T23:28:09.725Z,9.85
2022-10-21T23:30:38.273Z,8.15
2022-10-21T23:33:05.386Z,12.07
2022-10-21T23:35:32.867Z,13.02
2022-10-21T23:38:00.138Z,9.70
2022-10-21T23:40:28.185Z,9.25
2022-10-21T23:42:55.294Z,11.60
2022-10-21T23:45:22.540Z,8.15
2022-10-21T23:47:49.927Z,11.02
2022-10-21T23:50:17.157Z,11.57
2022-10-21T23:52:44.385Z,9.63
2022-10-21T23:55:11.498Z,7.80
2022-10-21T23:57:39.288Z,13.55
